createdAt,value
2024-01-09T00:00:27.596Z,26.48
2024-01-09T00:01:27.615Z,27.71
2024-01-09T00:02:27.703Z,26.30
2024-01-09T00:03:27.786Z,27.74
2024-01-09T00:04:27.760Z,26.96
2024-01-09T00:05:27.918Z,27.43
2024-01-09T00:06:27.837Z,28.45
2024-01-09T00:07:27.822Z,27.15
2024-01-09T00:08:27.912Z,27.95
2024-01-09T00:09:27.885Z,28.59
2024-01-09T00:10:27.942Z,27.14
2024-01-09T00:11:28.042Z,27.61
2024-01-09T00:12:28.028Z,28.01
2024-01-09T00:13:28.060Z,27.71
2024-01-09T00:14:28.579Z,28.15
2024-01-09T00:15:28.182Z,28.35
2024-01-09T00:16:28.183Z,29.79
2024-01-09T00:17:28.252Z,27.16
2024-01-09T00:18:28.285Z,29.57
2024-01-09T00:19:29.438Z,30.19
2024-01-09T00:20:28.346Z,28.74
2024-01-09T00:21:28.384Z,30.05
2024-01-09T00:22:28.385Z,27.83
2024-01-09T00:23:28.469Z,28.78
2024-01-09T00:24:28.453Z,28.91
2024-01-09T00:25:28.456Z,29.10
2024-01-09T00:26:28.611Z,29.03
2024-01-09T00:27:28.559Z,28.31
2024-01-09T00:28:28.629Z,29.21
2024-01-09T00:29:28.695Z,29.36
2024-01-09T00:30:28.693Z,29.93
2024-01-09T00:31:28.742Z,28.32
2024-01-09T00:32:28.869Z,27.57
2024-01-09T00:33:28.939Z,28.04
2024-01-09T00:34:28.894Z,28.94
2024-01-09T00:35:28.964Z,28.71
2024-01-09T00:36:28.934Z,27.45
2024-01-09T00:37:28.965Z,28.76
2024-01-09T00:38:29.013Z,29.31
2024-01-09T00:39:29.048Z,28.60
2024-01-09T00:40:29.119Z,29.48
2024-01-09T00:41:29.153Z,28.12
2024-01-09T00:42:29.185Z,29.55
2024-01-09T00:43:29.214Z,29.31
2024-01-09T00:44:29.272Z,29.69
2024-01-09T00:45:29.292Z,28.40
2024-01-09T00:46:29.338Z,30.37
2024-01-09T00:47:29.504Z,29.51
2024-01-09T00:48:29.591Z,30.73
2024-01-09T00:49:29.521Z,28.29
2024-01-09T00:50:29.505Z,27.55
2024-01-09T00:51:29.554Z,28.87
2024-01-09T00:52:29.588Z,28.96
2024-01-09T00:53:29.674Z,27.87
2024-01-09T00:54:29.664Z,30.32
2024-01-09T00:55:29.704Z,27.47
2024-01-09T00:56:29.782Z,28.03
2024-01-09T00:57:29.805Z,27.57
2024-01-09T00:58:29.848Z,30.64
2024-01-09T00:59:29.939Z,28.54
2024-01-09T01:00:29.946Z,29.10
2024-01-09T01:01:29.943Z,29.67
2024-01-09T01:02:29.992Z,28.50
2024-01-09T01:03:30.049Z,27.32
2024-01-09T01:04:30.033Z,29.72
2024-01-09T01:06:30.097Z,28.82
2024-01-09T01:07:30.161Z,31.72
2024-01-09T01:08:30.257Z,29.08
2024-01-09T01:09:30.199Z,30.39
2024-01-09T01:10:30.251Z,29.57
2024-01-09T01:11:30.290Z,31.41
2024-01-09T01:12:30.335Z,30.73
2024-01-09T01:13:30.328Z,29.98
2024-01-09T01:14:30.424Z,29.45
2024-01-09T01:15:30.412Z,30.47
2024-01-09T01:16:30.440Z,29.83
2024-01-09T01:17:30.567Z,29.99
2024-01-09T01:18:30.596Z,29.78
2024-01-09T01:19:30.614Z,31.63
2024-01-09T01:20:30.670Z,30.04
2024-01-09T01:21:30.670Z,28.98
2024-01-09T01:22:30.734Z,30.87
2024-01-09T01:23:30.763Z,28.72
2024-01-09T01:24:30.817Z,29.99
2024-01-09T01:25:30.873Z,30.10
2024-01-09T01:26:30.923Z,30.57
2024-01-09T01:27:30.944Z,29.25
2024-01-09T01:28:30.995Z,30.41
2024-01-09T01:29:31.146Z,30.26
2024-01-09T01:30:31.168Z,29.95
2024-01-09T01:31:31.201Z,30.64
2024-01-09T01:32:31.347Z,29.67
2024-01-09T01:33:31.387Z,30.82
2024-01-09T01:34:31.280Z,32.09
2024-01-09T01:35:31.338Z,30.67
2024-01-09T01:36:31.328Z,29.35
2024-01-09T01:37:31.397Z,30.55
2024-01-09T01:38:31.457Z,30.92
2024-01-09T01:39:31.460Z,31.01
2024-01-09T01:40:31.492Z,31.69
2024-01-09T01:41:31.645Z,30.82
2024-01-09T01:42:31.607Z,30.46
2024-01-09T01:43:31.598Z,30.40
2024-01-09T01:44:31.678Z,29.95
2024-01-09T01:45:31.761Z,28.75
2024-01-09T01:46:31.769Z,29.62
2024-01-09T01:47:31.905Z,30.13
2024-01-09T01:48:32.040Z,30.65
2024-01-09T01:49:31.916Z,33.19
2024-01-09T01:50:31.991Z,29.62
2024-01-09T01:51:32.043Z,30.21
2024-01-09T01:52:32.086Z,30.85
2024-01-09T01:53:32.148Z,31.62
2024-01-09T01:54:32.158Z,30.94
2024-01-09T01:55:32.138Z,30.27
2024-01-09T01:56:32.286Z,31.70
2024-01-09T01:57:32.216Z,31.81
2024-01-09T01:58:32.233Z,31.82
2024-01-09T01:59:32.296Z,33.27
2024-01-09T02:00:32.283Z,29.56
2024-01-09T02:01:32.346Z,31.45
2024-01-09T02:02:32.417Z,31.78
2024-01-09T02:03:32.437Z,30.86
2024-01-09T02:04:32.420Z,31.51
2024-01-09T02:05:32.583Z,32.07
2024-01-09T02:06:32.569Z,30.22
2024-01-09T02:07:32.596Z,31.62
2024-01-09T02:08:32.613Z,32.61
2024-01-09T02:09:32.617Z,31.03
2024-01-09T02:10:32.609Z,30.15
2024-01-09T02:11:32.709Z,30.56
2024-01-09T02:12:32.666Z,29.94
2024-01-09T02:13:32.719Z,31.11
2024-01-09T02:14:32.827Z,32.05
2024-01-09T02:15:32.753Z,32.71
2024-01-09T02:16:32.812Z,31.40
2024-01-09T02:17:32.873Z,30.35
2024-01-09T02:18:32.888Z,32.28
2024-01-09T02:19:32.933Z,31.56
2024-01-09T02:20:32.907Z,32.86
2024-01-09T02:21:32.983Z,31.58
2024-01-09T02:22:33.048Z,30.63
2024-01-09T02:23:33.061Z,29.72
2024-01-09T02:24:33.511Z,31.25
2024-01-09T02:25:33.264Z,31.25
2024-01-09T02:26:46.843Z,29.82
2024-01-09T02:27:34.357Z,31.40
2024-01-09T02:28:33.173Z,31.84
2024-01-09T02:29:33.226Z,31.33
2024-01-09T02:30:33.268Z,30.73
2024-01-09T02:31:33.200Z,31.24
2024-01-09T02:32:33.301Z,31.28
2024-01-09T02:33:33.379Z,31.18
2024-01-09T02:34:33.344Z,31.03
2024-01-09T02:35:33.215Z,32.83
2024-01-09T02:36:33.211Z,27.37
2024-01-09T02:37:33.241Z,27.57
2024-01-09T02:38:33.212Z,29.07
2024-01-09T02:39:33.214Z,25.12
2024-01-09T02:40:33.373Z,24.51
2024-01-09T02:41:33.382Z,26.53
2024-01-09T02:42:33.359Z,26.15
2024-01-09T02:43:33.406Z,26.21
2024-01-09T02:44:33.496Z,23.81
2024-01-09T02:45:33.437Z,24.44
2024-01-09T02:46:33.479Z,23.99
2024-01-09T02:47:33.575Z,23.84
2024-01-09T02:48:33.655Z,23.52
2024-01-09T02:49:33.739Z,22.26
2024-01-09T02:50:33.708Z,24.70
2024-01-09T02:51:33.683Z,23.30
2024-01-09T02:52:33.749Z,24.40
2024-01-09T02:53:33.892Z,24.82
2024-01-09T02:54:33.836Z,23.58
2024-01-09T02:55:33.877Z,24.36
2024-01-09T02:56:34.007Z,24.35
2024-01-09T02:57:33.991Z,25.27
2024-01-09T02:58:34.058Z,24.79
2024-01-09T02:59:34.110Z,25.38
2024-01-09T03:00:34.139Z,24.88
2024-01-09T03:01:34.190Z,23.71
2024-01-09T03:02:34.302Z,22.49
2024-01-09T03:03:34.390Z,21.76
2024-01-09T03:04:34.388Z,22.85
2024-01-09T03:05:35.319Z,23.51
2024-01-09T03:06:34.686Z,24.09
2024-01-09T03:07:34.795Z,24.44
2024-01-09T03:08:34.599Z,23.03
2024-01-09T03:09:34.607Z,22.78
2024-01-09T03:10:34.664Z,22.83
2024-01-09T03:11:34.748Z,22.46
2024-01-09T03:12:34.762Z,21.57
2024-01-09T03:13:34.828Z,21.43
2024-01-09T03:14:34.923Z,22.84
2024-01-09T03:15:34.886Z,20.78
2024-01-09T03:16:34.957Z,21.88
2024-01-09T03:17:35.010Z,20.82
2024-01-09T03:18:35.157Z,20.57
2024-01-09T03:19:35.093Z,20.66
2024-01-09T03:20:35.130Z,21.64
2024-01-09T03:21:35.330Z,21.56
2024-01-09T03:22:35.184Z,22.73
2024-01-09T03:23:35.246Z,21.05
2024-01-09T03:24:35.326Z,20.93
2024-01-09T03:25:35.403Z,20.95
2024-01-09T03:26:35.435Z,20.82
2024-01-09T03:27:35.448Z,22.19
2024-01-09T03:28:35.491Z,21.50
2024-01-09T03:29:35.588Z,22.43
2024-01-09T03:30:35.669Z,21.08
2024-01-09T03:31:35.615Z,20.15
2024-01-09T03:32:35.713Z,20.76
2024-01-09T03:33:35.761Z,19.96
2024-01-09T03:34:35.779Z,19.70
2024-01-09T03:35:35.835Z,19.15
2024-01-09T03:36:35.832Z,18.20
2024-01-09T03:37:35.904Z,18.81
2024-01-09T03:38:35.929Z,17.70
2024-01-09T03:39:35.957Z,18.43
2024-01-09T03:40:36.012Z,19.12
2024-01-09T03:41:36.126Z,17.82
2024-01-09T03:42:36.081Z,17.96
2024-01-09T03:43:36.164Z,17.51
2024-01-09T03:44:36.246Z,17.12
2024-01-09T03:45:36.223Z,18.02
2024-01-09T03:46:36.289Z,18.55
2024-01-09T03:47:36.428Z,18.20
2024-01-09T03:48:36.496Z,15.59
2024-01-09T03:49:36.414Z,17.12
2024-01-09T03:50:36.574Z,16.09
2024-01-09T03:51:36.485Z,15.44
2024-01-09T03:52:36.545Z,14.84
2024-01-09T03:53:37.391Z,14.58
2024-01-09T03:54:36.617Z,14.09
2024-01-09T03:55:36.649Z,13.50
2024-01-09T03:56:36.771Z,14.53
2024-01-09T03:57:36.797Z,15.04
2024-01-09T03:58:36.813Z,14.81
2024-01-09T03:59:36.868Z,13.46
2024-01-09T04:00:36.910Z,14.41
2024-01-09T04:01:36.882Z,12.90
2024-01-09T04:02:37.053Z,15.28
2024-01-09T04:03:37.063Z,14.34
2024-01-09T04:04:37.600Z,14.81
2024-01-09T04:05:37.166Z,14.93
2024-01-09T04:06:37.211Z,14.71
2024-01-09T04:07:37.148Z,14.55
2024-01-09T04:08:37.229Z,14.45
2024-01-09T04:09:37.227Z,15.13
2024-01-09T04:10:37.286Z,14.03
2024-01-09T04:11:37.379Z,14.12
2024-01-09T04:12:37.349Z,15.08
2024-01-09T04:13:37.357Z,14.45
2024-01-09T04:14:37.905Z,12.88
2024-01-09T04:15:37.498Z,13.36
2024-01-09T04:16:37.532Z,14.66
2024-01-09T04:17:37.704Z,14.35
2024-01-09T04:18:37.765Z,12.13
2024-01-09T04:19:37.762Z,12.85
2024-01-09T04:20:37.764Z,11.74
2024-01-09T04:21:37.787Z,13.29
2024-01-09T04:22:37.832Z,12.80
2024-01-09T04:23:37.892Z,14.26
2024-01-09T04:24:37.941Z,12.43
2024-01-09T04:25:37.972Z,12.58
2024-01-09T04:26:38.080Z,13.48
2024-01-09T04:27:38.094Z,12.68
2024-01-09T04:28:38.099Z,14.25
2024-01-09T04:29:38.169Z,13.17
2024-01-09T04:30:38.223Z,15.48
2024-01-09T04:31:38.258Z,15.32
2024-01-09T04:32:38.339Z,14.88
2024-01-09T04:33:38.401Z,14.75
2024-01-09T04:34:38.448Z,15.45
2024-01-09T04:35:38.449Z,15.83
2024-01-09T04:36:38.422Z,17.43
2024-01-09T04:37:38.479Z,17.11
2024-01-09T04:38:38.540Z,16.04
2024-01-09T04:39:38.574Z,14.51
2024-01-09T04:40:38.683Z,15.03
2024-01-09T04:41:38.722Z,14.04
2024-01-09T04:42:38.738Z,13.24
2024-01-09T04:43:38.780Z,13.56
2024-01-09T04:44:38.860Z,14.53
2024-01-09T04:45:38.908Z,14.78
2024-01-09T04:46:38.889Z,14.35
2024-01-09T04:47:39.094Z,14.82
2024-01-09T04:48:39.077Z,14.17
2024-01-09T04:49:39.061Z,17.83
2024-01-09T04:50:39.129Z,17.30
2024-01-09T04:51:39.128Z,15.55
2024-01-09T04:52:39.145Z,18.39
2024-01-09T04:53:39.226Z,18.52
2024-01-09T04:54:39.250Z,15.39
2024-01-09T04:55:39.324Z,17.56
2024-01-09T04:56:39.401Z,16.99
2024-01-09T04:57:39.443Z,16.75
2024-01-09T04:58:39.476Z,15.67
2024-01-09T04:59:39.590Z,16.86
2024-01-09T05:00:39.599Z,15.38
2024-01-09T05:01:39.624Z,16.66
2024-01-09T05:02:39.772Z,16.29
2024-01-09T05:03:39.760Z,17.73
2024-01-09T05:04:39.745Z,15.28
2024-01-09T05:05:39.956Z,16.19
2024-01-09T05:06:39.891Z,16.71
2024-01-09T05:07:39.905Z,13.96
2024-01-09T05:08:39.996Z,13.75
2024-01-09T05:09:39.986Z,13.77
2024-01-09T05:10:40.032Z,14.68
2024-01-09T05:11:40.097Z,15.50
2024-01-09T05:12:40.087Z,15.01
2024-01-09T05:13:40.107Z,14.67
2024-01-09T05:14:40.161Z,14.29
2024-01-09T05:15:40.228Z,14.10
2024-01-09T05:16:40.272Z,13.71
2024-01-09T05:17:40.514Z,14.66
2024-01-09T05:18:40.644Z,14.74
2024-01-09T05:19:40.426Z,13.14
2024-01-09T05:20:40.507Z,14.41
2024-01-09T05:21:40.546Z,13.75
2024-01-09T05:22:40.547Z,13.54
2024-01-09T05:23:40.604Z,14.92
2024-01-09T05:24:40.622Z,14.54
2024-01-09T05:25:40.698Z,13.70
2024-01-09T05:26:40.781Z,14.97
2024-01-09T05:27:48.829Z,12.78
2024-01-09T05:28:48.823Z,13.00
2024-01-09T05:29:48.897Z,14.08
2024-01-09T05:30:48.854Z,13.56
2024-01-09T05:31:48.851Z,13.94
2024-01-09T05:32:48.942Z,13.09
2024-01-09T05:33:48.989Z,14.23
2024-01-09T05:34:48.840Z,13.35
2024-01-09T05:35:48.911Z,13.71
2024-01-09T05:36:48.818Z,12.77
2024-01-09T05:37:48.829Z,11.88
2024-01-09T05:38:48.871Z,13.50
2024-01-09T05:39:48.873Z,12.63
2024-01-09T05:40:48.844Z,13.36
2024-01-09T05:41:48.955Z,13.09
2024-01-09T05:42:48.891Z,13.06
2024-01-09T05:43:48.889Z,13.66
2024-01-09T05:44:48.951Z,13.53
2024-01-09T05:45:48.885Z,14.03
2024-01-09T05:46:48.890Z,13.43
2024-01-09T05:47:49.140Z,14.08
2024-01-09T05:48:49.019Z,13.25
2024-01-09T05:49:48.903Z,13.06
2024-01-09T05:50:48.980Z,16.62
2024-01-09T05:51:48.922Z,14.24
2024-01-09T05:52:48.994Z,15.28
2024-01-09T05:53:51.227Z,14.45
2024-01-09T05:54:48.932Z,14.16
2024-01-09T05:55:48.883Z,14.68
2024-01-09T05:56:48.968Z,13.88
2024-01-09T05:57:48.924Z,14.39
2024-01-09T05:58:48.949Z,13.74
2024-01-09T05:59:48.994Z,13.14
2024-01-09T06:00:48.989Z,13.51
2024-01-09T06:01:48.933Z,14.12
2024-01-09T06:02:48.961Z,14.64
2024-01-09T06:03:48.969Z,14.19
2024-01-09T06:04:52.337Z,14.01
2024-01-09T06:05:49.060Z,13.79
2024-01-09T06:06:49.010Z,14.67
2024-01-09T06:07:48.990Z,15.45
2024-01-09T06:08:49.022Z,15.43
2024-01-09T06:09:48.936Z,16.17
2024-01-09T06:10:48.947Z,15.34
2024-01-09T06:11:49.015Z,15.59
2024-01-09T06:12:48.969Z,15.58
2024-01-09T06:13:48.989Z,14.34
2024-01-09T06:14:49.002Z,15.53
2024-01-09T06:15:49.006Z,15.15
2024-01-09T06:16:49.023Z,14.51
2024-01-09T06:17:49.118Z,14.67
2024-01-09T06:18:49.178Z,14.17
2024-01-09T06:19:49.034Z,16.40
2024-01-09T06:20:49.031Z,15.53
2024-01-09T06:21:49.155Z,15.14
2024-01-09T06:22:49.005Z,14.44
2024-01-09T06:23:49.263Z,14.16
2024-01-09T06:24:49.009Z,14.96
2024-01-09T06:25:48.997Z,13.58
2024-01-09T06:26:49.061Z,13.25
2024-01-09T06:27:49.032Z,14.40
2024-01-09T06:28:49.019Z,13.42
2024-01-09T06:29:49.051Z,13.96
2024-01-09T06:30:49.072Z,14.59
2024-01-09T06:31:49.032Z,13.83
2024-01-09T06:32:49.138Z,13.91
2024-01-09T06:33:49.141Z,14.17
2024-01-09T06:34:49.112Z,14.61
2024-01-09T06:35:49.138Z,15.43
2024-01-09T06:36:49.037Z,13.74
2024-01-09T06:37:49.074Z,14.43
2024-01-09T06:38:49.092Z,14.17
2024-01-09T06:39:49.055Z,51.09
2024-01-09T06:40:49.052Z,28.57
2024-01-09T06:41:49.143Z,25.44
2024-01-09T06:42:49.053Z,13.66
2024-01-09T06:43:49.078Z,15.66
2024-01-09T06:44:49.148Z,14.30
2024-01-09T06:45:49.088Z,13.99
2024-01-09T06:46:49.145Z,15.62
2024-01-09T06:47:49.199Z,14.76
2024-01-09T06:48:49.208Z,15.63
2024-01-09T06:49:51.159Z,15.00
2024-01-09T06:50:49.125Z,13.94
2024-01-09T06:51:49.089Z,15.16
2024-01-09T06:52:49.128Z,13.88
2024-01-09T06:53:49.542Z,13.99
2024-01-09T06:54:49.099Z,15.96
2024-01-09T06:55:49.136Z,15.69
2024-01-09T06:56:49.361Z,14.25
2024-01-09T06:57:49.095Z,14.76
2024-01-09T06:58:52.537Z,13.89
2024-01-09T06:59:49.160Z,14.26
2024-01-09T07:00:49.138Z,15.67
2024-01-09T07:01:49.115Z,16.21
2024-01-09T07:02:49.214Z,15.12
2024-01-09T07:03:49.735Z,16.23
2024-01-09T07:04:49.546Z,15.01
2024-01-09T07:05:49.398Z,15.28
2024-01-09T07:06:49.251Z,14.91
2024-01-09T07:07:50.920Z,13.72
2024-01-09T07:08:49.203Z,15.66
2024-01-09T07:09:49.481Z,12.62
2024-01-09T07:10:49.168Z,13.53
2024-01-09T07:11:49.257Z,13.31
2024-01-09T07:12:49.227Z,15.35
2024-01-09T07:13:49.275Z,14.27
2024-01-09T07:14:49.435Z,14.62
2024-01-09T07:15:49.375Z,15.14
2024-01-09T07:16:49.394Z,14.69
2024-01-09T07:17:49.692Z,13.90
2024-01-09T07:18:49.683Z,13.48
2024-01-09T07:19:49.980Z,15.39
2024-01-09T07:20:49.715Z,13.90
2024-01-09T07:21:49.706Z,13.62
2024-01-09T07:22:56.044Z,14.35
2024-01-09T07:23:51.055Z,15.09
2024-01-09T07:24:49.755Z,15.21
2024-01-09T07:25:49.782Z,14.88
2024-01-09T07:26:49.845Z,15.69
2024-01-09T07:27:49.767Z,17.98
2024-01-09T07:28:49.817Z,16.19
2024-01-09T07:29:49.859Z,14.68
2024-01-09T07:30:50.044Z,15.27
2024-01-09T07:31:49.816Z,15.59
2024-01-09T07:32:49.864Z,15.34
2024-01-09T07:33:50.017Z,14.22
2024-01-09T07:34:51.070Z,14.38
2024-01-09T07:35:50.001Z,15.04
2024-01-09T07:36:49.798Z,15.26
2024-01-09T07:37:49.783Z,15.49
2024-01-09T07:38:49.838Z,13.86
2024-01-09T07:39:49.878Z,16.17
2024-01-09T07:40:49.964Z,15.04
2024-01-09T07:41:50.034Z,14.72
2024-01-09T07:43:50.214Z,15.99
2024-01-09T07:44:51.077Z,15.76
2024-01-09T07:45:50.502Z,16.30
2024-01-09T07:46:51.203Z,17.72
2024-01-09T07:47:50.194Z,16.75
2024-01-09T07:48:50.495Z,17.37
2024-01-09T07:49:50.175Z,19.68
2024-01-09T07:50:50.194Z,18.35
2024-01-09T07:51:50.970Z,18.13
2024-01-09T07:52:50.489Z,17.37
2024-01-09T07:53:50.537Z,17.88
2024-01-09T07:54:50.074Z,18.16
2024-01-09T07:55:50.048Z,17.64
2024-01-09T07:56:50.042Z,19.37
2024-01-09T07:57:50.070Z,18.16
2024-01-09T07:58:50.063Z,16.48
2024-01-09T07:59:50.149Z,17.22
2024-01-09T08:00:50.124Z,18.18
2024-01-09T08:01:50.056Z,16.44
2024-01-09T08:02:50.157Z,17.04
2024-01-09T08:03:50.123Z,16.45
2024-01-09T08:04:50.471Z,17.56
2024-01-09T08:05:50.298Z,16.76
2024-01-09T08:06:50.148Z,16.75
2024-01-09T08:07:50.082Z,17.42
2024-01-09T08:08:51.191Z,17.25
2024-01-09T08:09:50.097Z,16.60
2024-01-09T08:10:50.083Z,15.17
2024-01-09T08:11:50.190Z,16.71
2024-01-09T08:12:50.128Z,17.10
2024-01-09T08:13:50.105Z,16.75
2024-01-09T08:14:50.525Z,16.61
2024-01-09T08:15:50.114Z,16.25
2024-01-09T08:16:50.166Z,16.76
2024-01-09T08:17:50.399Z,16.91
2024-01-09T08:18:50.342Z,16.61
2024-01-09T08:19:50.536Z,18.00
2024-01-09T08:20:50.494Z,16.41
2024-01-09T08:21:50.461Z,15.93
2024-01-09T08:22:50.454Z,14.85
2024-01-09T08:23:50.614Z,16.14
2024-01-09T08:24:50.981Z,16.15
2024-01-09T08:25:50.609Z,16.77
2024-01-09T08:26:50.853Z,16.26
2024-01-09T08:27:50.674Z,16.84
2024-01-09T08:28:50.717Z,17.16
2024-01-09T08:29:51.049Z,15.60
2024-01-09T08:30:50.849Z,17.40
2024-01-09T08:31:50.826Z,16.55
2024-01-09T08:32:51.179Z,16.58
2024-01-09T08:33:51.001Z,17.48
2024-01-09T08:34:50.985Z,14.76
2024-01-09T08:35:51.098Z,16.67
2024-01-09T08:36:51.095Z,16.48
2024-01-09T08:37:51.094Z,16.07
2024-01-09T08:38:51.209Z,17.45
2024-01-09T08:39:51.231Z,18.25
2024-01-09T08:40:51.281Z,16.13
2024-01-09T08:41:51.372Z,17.07
2024-01-09T08:42:51.348Z,16.94
2024-01-09T08:43:51.426Z,17.53
2024-01-09T08:44:52.005Z,16.85
2024-01-09T08:45:51.546Z,17.51
2024-01-09T08:46:51.604Z,17.11
2024-01-09T08:47:51.735Z,16.69
2024-01-09T08:48:51.811Z,18.31
2024-01-09T08:49:52.036Z,16.37
2024-01-09T08:50:51.865Z,16.91
2024-01-09T08:51:51.815Z,17.59
2024-01-09T08:52:51.905Z,16.13
2024-01-09T08:53:51.978Z,16.85
2024-01-09T08:54:52.500Z,17.34
2024-01-09T08:55:52.048Z,17.10
2024-01-09T08:56:52.116Z,17.07
2024-01-09T08:57:52.135Z,15.67
2024-01-09T08:58:52.184Z,16.79
2024-01-09T08:59:52.256Z,17.31
2024-01-09T09:00:52.347Z,15.39
2024-01-09T09:01:52.351Z,15.31
2024-01-09T09:02:52.473Z,16.87
2024-01-09T09:03:52.443Z,15.71
2024-01-09T09:04:52.423Z,17.30
2024-01-09T09:05:52.589Z,17.68
2024-01-09T09:06:52.581Z,16.17
2024-01-09T09:07:52.564Z,15.49
2024-01-09T09:08:52.727Z,15.22
2024-01-09T09:09:52.638Z,15.69
2024-01-09T09:10:52.695Z,16.15
2024-01-09T09:11:52.778Z,17.09
2024-01-09T09:12:52.824Z,16.58
2024-01-09T09:13:52.813Z,17.74
2024-01-09T09:14:53.084Z,15.59
2024-01-09T09:15:52.924Z,16.76
2024-01-09T09:16:52.975Z,15.83
2024-01-09T09:17:53.059Z,17.00
2024-01-09T09:18:53.208Z,16.25
2024-01-09T09:19:53.530Z,16.54
2024-01-09T09:20:53.179Z,17.45
2024-01-09T09:21:53.136Z,17.03
2024-01-09T09:22:53.184Z,16.47
2024-01-09T09:23:53.232Z,16.66
2024-01-09T09:24:53.486Z,16.31
2024-01-09T09:25:53.283Z,17.34
2024-01-09T09:26:53.379Z,16.30
2024-01-09T09:27:53.334Z,16.96
2024-01-09T09:29:02.774Z,16.97
2024-01-09T09:29:54.515Z,17.30
2024-01-09T09:30:53.549Z,16.70
2024-01-09T09:31:53.457Z,16.08
2024-01-09T09:32:53.545Z,17.58
